sensor_id;sensor_type;location;lat;lon;timestamp;P1;durP1;ratioP1;P2;durP2;ratioP2
15665;SDS011;20725;51.196;3.510;2023-02-15T00:01:05;83.57;;;47.23;;
15665;SDS011;20725;51.196;3.510;2023-02-15T00:03:34;187.60;;;56.20;;
15665;SDS011;20725;51.196;3.510;2023-02-15T00:06:01;140.30;;;55.47;;
15665;SDS011;20725;51.196;3.510;2023-02-15T00:08:28;108.87;;;50.20;;
15665;SDS011;20725;51.196;3.510;2023-02-15T00:11:02;213.10;;;54.53;;
15665;SDS011;20725;51.196;3.510;2023-02-15T00:13:30;86.40;;;54.30;;
15665;SDS011;20725;51.196;3.510;2023-02-15T00:16:00;129.67;;;49.67;;
15665;SDS011;20725;51.196;3.510;2023-02-15T00:18:27;223.40;;;51.10;;
15665;SDS011;20725;51.196;3.510;2023-02-15T00:20:56;201.23;;;50.53;;
15665;SDS011;20725;51.196;3.510;2023-02-15T00:23:23;83.67;;;49.43;;
15665;SDS011;20725;51.196;3.510;2023-02-15T00:25:52;70.73;;;49.77;;
15665;SDS011;20725;51.196;3.510;2023-02-15T00:28:29;79.47;;;48.47;;
15665;SDS011;20725;51.196;3.510;2023-02-15T00:31:01;112.93;;;45.87;;
15665;SDS011;20725;51.196;3.510;2023-02-15T00:33:29;116.67;;;45.30;;
15665;SDS011;20725;51.196;3.510;2023-02-15T00:35:58;248.77;;;52.23;;
15665;SDS011;20725;51.196;3.510;2023-02-15T00:38:26;267.53;;;46.40;;
15665;SDS011;20725;51.196;3.510;2023-02-15T00:40:53;71.27;;;44.57;;
15665;SDS011;20725;51.196;3.510;2023-02-15T00:43:21;63.23;;;44.60;;
15665;SDS011;20725;51.196;3.510;2023-02-15T00:45:48;77.07;;;48.13;;
15665;SDS011;20725;51.196;3.510;2023-02-15T00:48:15;265.60;;;44.77;;
15665;SDS011;20725;51.196;3.510;2023-02-15T00:50:44;111.20;;;45.83;;
15665;SDS011;20725;51.196;3.510;2023-02-15T00:53:13;435.90;;;57.27;;
15665;SDS011;20725;51.196;3.510;2023-02-15T00:55:40;524.17;;;62.43;;
15665;SDS011;20725;51.196;3.510;2023-02-15T00:58:07;282.93;;;52.87;;
15665;SDS011;20725;51.196;3.510;2023-02-15T01:03:11;69.20;;;49.23;;
15665;SDS011;20725;51.196;3.510;2023-02-15T01:05:39;69.27;;;49.77;;
15665;SDS011;20725;51.196;3.510;2023-02-15T01:08:06;72.20;;;50.97;;
15665;SDS011;20725;51.196;3.510;2023-02-15T01:10:35;258.70;;;55.80;;
15665;SDS011;20725;51.196;3.510;2023-02-15T01:13:02;74.37;;;52.07;;
15665;SDS011;20725;51.196;3.510;2023-02-15T01:15:29;77.10;;;52.87;;
15665;SDS011;20725;51.196;3.510;2023-02-15T01:17:56;85.33;;;52.10;;
15665;SDS011;20725;51.196;3.510;2023-02-15T01:20:25;133.67;;;52.77;;
15665;SDS011;20725;51.196;3.510;2023-02-15T01:22:53;344.70;;;51.33;;
15665;SDS011;20725;51.196;3.510;2023-02-15T01:25:21;380.13;;;52.20;;
15665;SDS011;20725;51.196;3.510;2023-02-15T01:27:51;342.97;;;55.20;;
15665;SDS011;20725;51.196;3.510;2023-02-15T01:30:18;210.27;;;45.17;;
15665;SDS011;20725;51.196;3.510;2023-02-15T01:32:45;196.00;;;47.63;;
15665;SDS011;20725;51.196;3.510;2023-02-15T01:35:12;162.17;;;49.47;;
15665;SDS011;20725;51.196;3.510;2023-02-15T01:37:39;104.97;;;47.83;;
15665;SDS011;20725;51.196;3.510;2023-02-15T01:40:07;64.70;;;46.23;;
15665;SDS011;20725;51.196;3.510;2023-02-15T01:42:38;258.77;;;53.30;;
15665;SDS011;20725;51.196;3.510;2023-02-15T01:45:11;87.50;;;49.87;;
15665;SDS011;20725;51.196;3.510;2023-02-15T01:47:47;77.83;;;48.87;;
15665;SDS011;20725;51.196;3.510;2023-02-15T01:50:19;86.27;;;51.03;;
15665;SDS011;20725;51.196;3.510;2023-02-15T01:52:49;70.73;;;45.70;;
15665;SDS011;20725;51.196;3.510;2023-02-15T01:55:20;82.27;;;45.73;;
15665;SDS011;20725;51.196;3.510;2023-02-15T01:57:50;65.90;;;45.87;;
15665;SDS011;20725;51.196;3.510;2023-02-15T02:00:19;67.43;;;45.77;;
15665;SDS011;20725;51.196;3.510;2023-02-15T02:02:47;187.37;;;48.40;;
15665;SDS011;20725;51.196;3.510;2023-02-15T02:05:16;218.93;;;50.50;;
15665;SDS011;20725;51.196;3.510;2023-02-15T02:07:44;155.63;;;49.83;;
15665;SDS011;20725;51.196;3.510;2023-02-15T02:10:13;180.53;;;48.80;;
15665;SDS011;20725;51.196;3.510;2023-02-15T02:12:47;86.33;;;46.73;;
15665;SDS011;20725;51.196;3.510;2023-02-15T02:15:19;64.30;;;46.50;;
15665;SDS011;20725;51.196;3.510;2023-02-15T02:17:58;63.57;;;45.63;;
15665;SDS011;20725;51.196;3.510;2023-02-15T02:20:40;60.30;;;45.60;;
15665;SDS011;20725;51.196;3.510;2023-02-15T02:23:34;63.80;;;42.70;;
15665;SDS011;20725;51.196;3.510;2023-02-15T02:32:45;53.03;;;42.73;;
15665;SDS011;20725;51.196;3.510;2023-02-15T02:35:30;57.37;;;43.67;;
15665;SDS011;20725;51.196;3.510;2023-02-15T02:38:03;55.17;;;42.87;;
15665;SDS011;20725;51.196;3.510;2023-02-15T02:40:41;49.97;;;40.30;;
15665;SDS011;20725;51.196;3.510;2023-02-15T02:43:18;50.80;;;42.03;;
15665;SDS011;20725;51.196;3.510;2023-02-15T02:45:52;53.87;;;43.83;;
15665;SDS011;20725;51.196;3.510;2023-02-15T02:48:26;55.20;;;43.00;;
15665;SDS011;20725;51.196;3.510;2023-02-15T02:50:56;53.33;;;42.27;;
15665;SDS011;20725;51.196;3.510;2023-02-15T02:53:23;49.60;;;40.43;;
15665;SDS011;20725;51.196;3.510;2023-02-15T02:55:52;49.70;;;41.27;;
15665;SDS011;20725;51.196;3.510;2023-02-15T02:58:23;49.17;;;40.57;;
15665;SDS011;20725;51.196;3.510;2023-02-15T03:00:53;49.57;;;39.77;;
15665;SDS011;20725;51.196;3.510;2023-02-15T03:03:24;49.67;;;40.67;;
15665;SDS011;20725;51.196;3.510;2023-02-15T03:05:56;57.17;;;44.43;;
15665;SDS011;20725;51.196;3.510;2023-02-15T03:08:26;56.97;;;42.57;;
15665;SDS011;20725;51.196;3.510;2023-02-15T03:10:59;174.43;;;45.67;;
15665;SDS011;20725;51.196;3.510;2023-02-15T03:13:27;63.60;;;45.10;;
15665;SDS011;20725;51.196;3.510;2023-02-15T03:15:55;50.10;;;42.13;;
15665;SDS011;20725;51.196;3.510;2023-02-15T03:18:43;47.70;;;39.40;;
15665;SDS011;20725;51.196;3.510;2023-02-15T03:21:17;60.70;;;43.30;;
15665;SDS011;20725;51.196;3.510;2023-02-15T03:23:48;59.83;;;40.97;;
15665;SDS011;20725;51.196;3.510;2023-02-15T03:26:18;61.60;;;42.00;;
15665;SDS011;20725;51.196;3.510;2023-02-15T03:28:48;53.53;;;41.03;;
15665;SDS011;20725;51.196;3.510;2023-02-15T03:31:17;60.43;;;42.97;;
15665;SDS011;20725;51.196;3.510;2023-02-15T03:33:49;52.03;;;41.40;;
15665;SDS011;20725;51.196;3.510;2023-02-15T03:36:20;54.80;;;40.87;;
15665;SDS011;20725;51.196;3.510;2023-02-15T03:38:52;50.60;;;40.13;;
15665;SDS011;20725;51.196;3.510;2023-02-15T03:41:24;44.30;;;37.57;;
15665;SDS011;20725;51.196;3.510;2023-02-15T03:43:56;44.03;;;37.03;;
15665;SDS011;20725;51.196;3.510;2023-02-15T03:46:27;44.67;;;36.57;;
15665;SDS011;20725;51.196;3.510;2023-02-15T03:49:01;45.03;;;37.20;;
15665;SDS011;20725;51.196;3.510;2023-02-15T03:51:32;44.53;;;35.63;;
15665;SDS011;20725;51.196;3.510;2023-02-15T03:54:01;42.50;;;36.00;;
15665;SDS011;20725;51.196;3.510;2023-02-15T03:56:33;41.20;;;36.57;;
15665;SDS011;20725;51.196;3.510;2023-02-15T03:59:00;41.90;;;34.97;;
15665;SDS011;20725;51.196;3.510;2023-02-15T04:01:47;41.17;;;34.33;;
15665;SDS011;20725;51.196;3.510;2023-02-15T04:04:32;39.43;;;33.20;;
15665;SDS011;20725;51.196;3.510;2023-02-15T04:07:00;39.50;;;33.47;;
15665;SDS011;20725;51.196;3.510;2023-02-15T04:09:28;37.20;;;31.53;;
15665;SDS011;20725;51.196;3.510;2023-02-15T04:12:12;39.73;;;32.73;;
15665;SDS011;20725;51.196;3.510;2023-02-15T04:14:39;44.33;;;35.73;;
15665;SDS011;20725;51.196;3.510;2023-02-15T04:17:23;46.97;;;35.73;;
15665;SDS011;20725;51.196;3.510;2023-02-15T04:19:52;48.67;;;35.67;;
15665;SDS011;20725;51.196;3.510;2023-02-15T04:22:36;43.50;;;33.63;;
15665;SDS011;20725;51.196;3.510;2023-02-15T04:25:20;47.67;;;38.00;;
15665;SDS011;20725;51.196;3.510;2023-02-15T04:27:48;54.17;;;39.63;;
15665;SDS011;20725;51.196;3.510;2023-02-15T04:30:16;53.17;;;38.63;;
15665;SDS011;20725;51.196;3.510;2023-02-15T04:32:45;62.90;;;43.23;;
15665;SDS011;20725;51.196;3.510;2023-02-15T04:35:14;69.53;;;43.17;;
15665;SDS011;20725;51.196;3.510;2023-02-15T04:37:41;71.77;;;43.57;;
15665;SDS011;20725;51.196;3.510;2023-02-15T04:40:10;64.60;;;43.63;;
15665;SDS011;20725;51.196;3.510;2023-02-15T04:42:38;86.43;;;40.17;;
15665;SDS011;20725;51.196;3.510;2023-02-15T04:45:05;77.23;;;37.87;;
15665;SDS011;20725;51.196;3.510;2023-02-15T04:47:33;52.90;;;38.87;;
15665;SDS011;20725;51.196;3.510;2023-02-15T04:50:00;46.57;;;36.40;;
15665;SDS011;20725;51.196;3.510;2023-02-15T04:52:28;54.17;;;38.30;;
15665;SDS011;20725;51.196;3.510;2023-02-15T04:54:56;59.80;;;42.50;;
15665;SDS011;20725;51.196;3.510;2023-02-15T04:57:23;61.90;;;41.47;;
15665;SDS011;20725;51.196;3.510;2023-02-15T04:59:50;61.20;;;42.13;;
15665;SDS011;20725;51.196;3.510;2023-02-15T05:02:17;56.83;;;42.33;;
15665;SDS011;20725;51.196;3.510;2023-02-15T05:04:44;59.43;;;41.20;;
15665;SDS011;20725;51.196;3.510;2023-02-15T05:07:11;60.40;;;42.83;;
15665;SDS011;20725;51.196;3.510;2023-02-15T05:09:41;59.77;;;41.40;;
15665;SDS011;20725;51.196;3.510;2023-02-15T05:12:08;64.70;;;43.00;;
15665;SDS011;20725;51.196;3.510;2023-02-15T05:14:35;64.37;;;42.20;;
15665;SDS011;20725;51.196;3.510;2023-02-15T05:17:01;62.97;;;41.93;;
15665;SDS011;20725;51.196;3.510;2023-02-15T05:19:30;102.80;;;43.73;;
15665;SDS011;20725;51.196;3.510;2023-02-15T05:21:57;79.10;;;45.27;;
15665;SDS011;20725;51.196;3.510;2023-02-15T05:24:25;62.37;;;41.87;;
15665;SDS011;20725;51.196;3.510;2023-02-15T05:27:11;60.60;;;41.93;;
15665;SDS011;20725;51.196;3.510;2023-02-15T05:29:56;64.57;;;43.80;;
15665;SDS011;20725;51.196;3.510;2023-02-15T05:32:23;59.23;;;42.13;;
15665;SDS011;20725;51.196;3.510;2023-02-15T05:34:50;59.60;;;42.80;;
15665;SDS011;20725;51.196;3.510;2023-02-15T05:37:17;79.83;;;49.97;;
15665;SDS011;20725;51.196;3.510;2023-02-15T05:39:44;76.20;;;46.60;;
15665;SDS011;20725;51.196;3.510;2023-02-15T05:42:12;72.67;;;45.27;;
15665;SDS011;20725;51.196;3.510;2023-02-15T05:44:39;66.83;;;47.20;;
15665;SDS011;20725;51.196;3.510;2023-02-15T05:47:06;64.63;;;46.07;;
15665;SDS011;20725;51.196;3.510;2023-02-15T05:49:33;73.93;;;49.57;;
15665;SDS011;20725;51.196;3.510;2023-02-15T05:52:00;83.57;;;52.23;;
15665;SDS011;20725;51.196;3.510;2023-02-15T05:54:28;74.17;;;47.80;;
15665;SDS011;20725;51.196;3.510;2023-02-15T05:56:55;135.00;;;52.60;;
15665;SDS011;20725;51.196;3.510;2023-02-15T05:59:23;115.83;;;49.97;;
15665;SDS011;20725;51.196;3.510;2023-02-15T06:01:51;95.53;;;50.00;;
15665;SDS011;20725;51.196;3.510;2023-02-15T06:04:17;91.23;;;53.07;;
15665;SDS011;20725;51.196;3.510;2023-02-15T06:06:44;77.73;;;48.73;;
15665;SDS011;20725;51.196;3.510;2023-02-15T06:09:12;91.53;;;52.50;;
15665;SDS011;20725;51.196;3.510;2023-02-15T06:11:39;86.67;;;50.77;;
15665;SDS011;20725;51.196;3.510;2023-02-15T06:14:06;87.10;;;48.83;;
15665;SDS011;20725;51.196;3.510;2023-02-15T06:16:34;96.80;;;48.90;;
15665;SDS011;20725;51.196;3.510;2023-02-15T06:19:01;84.17;;;44.53;;
15665;SDS011;20725;51.196;3.510;2023-02-15T06:21:28;78.70;;;47.00;;
15665;SDS011;20725;51.196;3.510;2023-02-15T06:23:56;81.07;;;47.57;;
15665;SDS011;20725;51.196;3.510;2023-02-15T06:26:23;77.03;;;47.13;;
15665;SDS011;20725;51.196;3.510;2023-02-15T06:28:50;73.23;;;48.50;;
15665;SDS011;20725;51.196;3.510;2023-02-15T06:31:17;78.97;;;46.23;;
15665;SDS011;20725;51.196;3.510;2023-02-15T06:33:45;79.43;;;46.37;;
15665;SDS011;20725;51.196;3.510;2023-02-15T06:36:12;90.10;;;49.07;;
15665;SDS011;20725;51.196;3.510;2023-02-15T06:38:43;87.90;;;49.87;;
15665;SDS011;20725;51.196;3.510;2023-02-15T06:41:10;78.47;;;48.17;;
15665;SDS011;20725;51.196;3.510;2023-02-15T06:43:37;78.07;;;47.97;;
15665;SDS011;20725;51.196;3.510;2023-02-15T06:46:04;86.37;;;49.17;;
15665;SDS011;20725;51.196;3.510;2023-02-15T06:48:31;77.97;;;49.77;;
15665;SDS011;20725;51.196;3.510;2023-02-15T06:51:00;78.37;;;48.23;;
15665;SDS011;20725;51.196;3.510;2023-02-15T06:53:30;81.20;;;49.43;;
15665;SDS011;20725;51.196;3.510;2023-02-15T06:56:00;68.10;;;46.17;;
15665;SDS011;20725;51.196;3.510;2023-02-15T06:58:31;69.13;;;46.63;;
15665;SDS011;20725;51.196;3.510;2023-02-15T07:00:59;62.70;;;43.47;;
15665;SDS011;20725;51.196;3.510;2023-02-15T07:03:26;66.93;;;43.93;;
15665;SDS011;20725;51.196;3.510;2023-02-15T07:05:56;62.13;;;42.40;;
15665;SDS011;20725;51.196;3.510;2023-02-15T07:08:26;72.90;;;47.57;;
15665;SDS011;20725;51.196;3.510;2023-02-15T07:10:54;71.70;;;44.50;;
15665;SDS011;20725;51.196;3.510;2023-02-15T07:13:42;68.80;;;44.80;;
15665;SDS011;20725;51.196;3.510;2023-02-15T07:16:09;72.00;;;46.47;;
15665;SDS011;20725;51.196;3.510;2023-02-15T07:18:36;69.17;;;44.80;;
15665;SDS011;20725;51.196;3.510;2023-02-15T07:21:03;85.83;;;51.77;;
15665;SDS011;20725;51.196;3.510;2023-02-15T07:23:34;82.40;;;49.43;;
15665;SDS011;20725;51.196;3.510;2023-02-15T07:26:01;75.33;;;46.73;;
15665;SDS011;20725;51.196;3.510;2023-02-15T07:28:29;78.70;;;50.33;;
15665;SDS011;20725;51.196;3.510;2023-02-15T07:30:56;79.53;;;48.07;;
15665;SDS011;20725;51.196;3.510;2023-02-15T07:33:23;87.63;;;51.73;;
15665;SDS011;20725;51.196;3.510;2023-02-15T07:35:52;87.43;;;53.40;;
15665;SDS011;20725;51.196;3.510;2023-02-15T07:38:22;89.73;;;53.77;;
15665;SDS011;20725;51.196;3.510;2023-02-15T07:40:50;110.90;;;63.33;;
15665;SDS011;20725;51.196;3.510;2023-02-15T07:43:18;99.83;;;60.07;;
15665;SDS011;20725;51.196;3.510;2023-02-15T07:45:45;112.70;;;66.80;;
15665;SDS011;20725;51.196;3.510;2023-02-15T07:48:12;116.90;;;62.63;;
15665;SDS011;20725;51.196;3.510;2023-02-15T07:50:39;113.67;;;66.03;;
15665;SDS011;20725;51.196;3.510;2023-02-15T07:53:07;113.43;;;66.60;;
15665;SDS011;20725;51.196;3.510;2023-02-15T07:55:34;107.70;;;63.87;;
15665;SDS011;20725;51.196;3.510;2023-02-15T07:58:02;98.43;;;61.80;;
15665;SDS011;20725;51.196;3.510;2023-02-15T08:00:29;95.17;;;59.70;;
15665;SDS011;20725;51.196;3.510;2023-02-15T08:03:17;96.80;;;64.80;;
15665;SDS011;20725;51.196;3.510;2023-02-15T08:05:44;95.67;;;59.57;;
15665;SDS011;20725;51.196;3.510;2023-02-15T08:08:11;86.20;;;55.17;;
15665;SDS011;20725;51.196;3.510;2023-02-15T08:10:57;83.03;;;52.73;;
15665;SDS011;20725;51.196;3.510;2023-02-15T08:13:44;72.60;;;48.87;;
15665;SDS011;20725;51.196;3.510;2023-02-15T08:16:21;69.73;;;47.77;;
15665;SDS011;20725;51.196;3.510;2023-02-15T08:18:52;65.07;;;46.03;;
15665;SDS011;20725;51.196;3.510;2023-02-15T08:21:20;62.27;;;45.63;;
15665;SDS011;20725;51.196;3.510;2023-02-15T08:23:50;68.13;;;45.70;;
15665;SDS011;20725;51.196;3.510;2023-02-15T08:26:18;60.67;;;42.87;;
15665;SDS011;20725;51.196;3.510;2023-02-15T08:28:49;59.10;;;43.20;;
15665;SDS011;20725;51.196;3.510;2023-02-15T08:31:20;59.97;;;42.67;;
15665;SDS011;20725;51.196;3.510;2023-02-15T08:33:49;61.30;;;43.13;;
15665;SDS011;20725;51.196;3.510;2023-02-15T08:36:18;60.80;;;43.93;;
15665;SDS011;20725;51.196;3.510;2023-02-15T08:39:05;61.63;;;42.20;;
15665;SDS011;20725;51.196;3.510;2023-02-15T08:41:41;57.73;;;41.53;;
15665;SDS011;20725;51.196;3.510;2023-02-15T08:44:11;58.00;;;42.93;;
15665;SDS011;20725;51.196;3.510;2023-02-15T08:46:41;55.37;;;42.47;;
15665;SDS011;20725;51.196;3.510;2023-02-15T08:49:10;59.90;;;41.67;;
15665;SDS011;20725;51.196;3.510;2023-02-15T08:51:42;57.97;;;42.07;;
15665;SDS011;20725;51.196;3.510;2023-02-15T08:54:23;64.47;;;43.03;;
15665;SDS011;20725;51.196;3.510;2023-02-15T08:56:52;60.57;;;44.97;;
15665;SDS011;20725;51.196;3.510;2023-02-15T08:59:22;57.13;;;40.67;;
15665;SDS011;20725;51.196;3.510;2023-02-15T09:01:55;58.13;;;42.40;;
15665;SDS011;20725;51.196;3.510;2023-02-15T09:04:26;55.17;;;40.10;;
15665;SDS011;20725;51.196;3.510;2023-02-15T09:06:54;55.63;;;42.17;;
15665;SDS011;20725;51.196;3.510;2023-02-15T09:09:21;56.80;;;38.23;;
15665;SDS011;20725;51.196;3.510;2023-02-15T09:11:51;49.87;;;39.10;;
15665;SDS011;20725;51.196;3.510;2023-02-15T09:14:19;55.40;;;40.00;;
15665;SDS011;20725;51.196;3.510;2023-02-15T09:16:51;47.70;;;35.77;;
15665;SDS011;20725;51.196;3.510;2023-02-15T09:19:22;47.83;;;37.57;;
15665;SDS011;20725;51.196;3.510;2023-02-15T09:21:57;47.37;;;37.43;;
15665;SDS011;20725;51.196;3.510;2023-02-15T09:24:27;46.53;;;37.77;;
15665;SDS011;20725;51.196;3.510;2023-02-15T09:26:58;44.47;;;36.77;;
15665;SDS011;20725;51.196;3.510;2023-02-15T09:29:34;48.10;;;38.23;;
15665;SDS011;20725;51.196;3.510;2023-02-15T09:32:04;48.10;;;36.93;;
15665;SDS011;20725;51.196;3.510;2023-02-15T09:34:34;44.87;;;37.03;;
15665;SDS011;20725;51.196;3.510;2023-02-15T09:37:13;43.73;;;36.00;;
15665;SDS011;20725;51.196;3.510;2023-02-15T09:39:44;46.57;;;37.80;;
15665;SDS011;20725;51.196;3.510;2023-02-15T09:42:25;44.40;;;36.90;;
15665;SDS011;20725;51.196;3.510;2023-02-15T09:45:20;41.33;;;35.77;;
15665;SDS011;20725;51.196;3.510;2023-02-15T09:51:01;42.87;;;36.50;;
15665;SDS011;20725;51.196;3.510;2023-02-15T09:53:50;42.67;;;35.63;;
15665;SDS011;20725;51.196;3.510;2023-02-15T09:56:31;43.73;;;36.13;;
15665;SDS011;20725;51.196;3.510;2023-02-15T09:59:16;45.47;;;35.63;;
15665;SDS011;20725;51.196;3.510;2023-02-15T10:02:08;41.73;;;35.40;;
15665;SDS011;20725;51.196;3.510;2023-02-15T10:05:07;40.40;;;35.23;;
15665;SDS011;20725;51.196;3.510;2023-02-15T10:10:45;38.47;;;33.87;;
15665;SDS011;20725;51.196;3.510;2023-02-15T10:13:44;42.17;;;34.37;;
15665;SDS011;20725;51.196;3.510;2023-02-15T10:16:33;38.27;;;34.10;;
15665;SDS011;20725;51.196;3.510;2023-02-15T10:19:16;42.70;;;34.57;;
15665;SDS011;20725;51.196;3.510;2023-02-15T10:21:59;40.00;;;34.63;;
15665;SDS011;20725;51.196;3.510;2023-02-15T10:24:46;38.23;;;33.47;;
15665;SDS011;20725;51.196;3.510;2023-02-15T10:27:38;40.57;;;34.70;;
15665;SDS011;20725;51.196;3.510;2023-02-15T10:30:12;41.63;;;34.03;;
15665;SDS011;20725;51.196;3.510;2023-02-15T10:32:43;37.77;;;33.70;;
15665;SDS011;20725;51.196;3.510;2023-02-15T10:35:22;41.73;;;35.77;;
15665;SDS011;20725;51.196;3.510;2023-02-15T10:38:12;42.30;;;33.47;;
15665;SDS011;20725;51.196;3.510;2023-02-15T10:40:53;39.37;;;34.40;;
15665;SDS011;20725;51.196;3.510;2023-02-15T10:43:36;38.83;;;32.90;;
15665;SDS011;20725;51.196;3.510;2023-02-15T10:46:19;37.43;;;33.40;;
15665;SDS011;20725;51.196;3.510;2023-02-15T10:48:59;35.27;;;31.47;;
15665;SDS011;20725;51.196;3.510;2023-02-15T10:51:43;40.67;;;33.57;;
15665;SDS011;20725;51.196;3.510;2023-02-15T10:54:24;39.27;;;33.07;;
15665;SDS011;20725;51.196;3.510;2023-02-15T10:57:04;40.67;;;34.60;;
15665;SDS011;20725;51.196;3.510;2023-02-15T10:59:52;39.97;;;32.70;;
15665;SDS011;20725;51.196;3.510;2023-02-15T11:02:34;35.47;;;31.57;;
15665;SDS011;20725;51.196;3.510;2023-02-15T11:05:26;36.13;;;32.23;;
15665;SDS011;20725;51.196;3.510;2023-02-15T11:08:08;39.80;;;32.40;;
15665;SDS011;20725;51.196;3.510;2023-02-15T11:10:44;36.70;;;32.28;;
15665;SDS011;20725;51.196;3.510;2023-02-15T11:13:24;33.45;;;29.85;;
15665;SDS011;20725;51.196;3.510;2023-02-15T11:16:00;36.03;;;31.45;;
15665;SDS011;20725;51.196;3.510;2023-02-15T11:18:40;35.13;;;31.25;;
15665;SDS011;20725;51.196;3.510;2023-02-15T11:21:11;34.35;;;30.80;;
15665;SDS011;20725;51.196;3.510;2023-02-15T11:23:46;38.03;;;30.95;;
15665;SDS011;20725;51.196;3.510;2023-02-15T11:26:16;37.03;;;32.13;;
15665;SDS011;20725;51.196;3.510;2023-02-15T11:28:51;35.40;;;31.70;;
15665;SDS011;20725;51.196;3.510;2023-02-15T11:31:26;41.97;;;32.30;;
15665;SDS011;20725;51.196;3.510;2023-02-15T11:34:05;39.90;;;31.50;;
15665;SDS011;20725;51.196;3.510;2023-02-15T11:36:39;33.97;;;30.33;;
15665;SDS011;20725;51.196;3.510;2023-02-15T11:39:10;35.63;;;31.77;;
15665;SDS011;20725;51.196;3.510;2023-02-15T11:41:40;36.13;;;31.93;;
15665;SDS011;20725;51.196;3.510;2023-02-15T11:44:11;35.23;;;30.83;;
15665;SDS011;20725;51.196;3.510;2023-02-15T11:46:46;35.37;;;31.77;;
15665;SDS011;20725;51.196;3.510;2023-02-15T11:49:19;35.07;;;31.03;;
15665;SDS011;20725;51.196;3.510;2023-02-15T11:51:49;34.73;;;30.93;;
15665;SDS011;20725;51.196;3.510;2023-02-15T11:54:21;37.87;;;31.80;;
15665;SDS011;20725;51.196;3.510;2023-02-15T11:56:53;35.80;;;32.00;;
15665;SDS011;20725;51.196;3.510;2023-02-15T11:59:24;41.20;;;33.13;;
15665;SDS011;20725;51.196;3.510;2023-02-15T12:01:55;38.43;;;33.13;;
15665;SDS011;20725;51.196;3.510;2023-02-15T12:04:23;36.60;;;32.60;;
15665;SDS011;20725;51.196;3.510;2023-02-15T12:06:54;37.83;;;32.20;;
15665;SDS011;20725;51.196;3.510;2023-02-15T12:09:28;39.10;;;32.10;;
15665;SDS011;20725;51.196;3.510;2023-02-15T12:14:50;38.40;;;32.30;;
15665;SDS011;20725;51.196;3.510;2023-02-15T12:17:20;40.87;;;32.83;;
15665;SDS011;20725;51.196;3.510;2023-02-15T12:19:49;36.37;;;31.63;;
15665;SDS011;20725;51.196;3.510;2023-02-15T12:22:19;40.03;;;34.13;;
15665;SDS011;20725;51.196;3.510;2023-02-15T12:24:50;42.57;;;34.77;;
15665;SDS011;20725;51.196;3.510;2023-02-15T12:27:22;43.93;;;34.60;;
15665;SDS011;20725;51.196;3.510;2023-02-15T12:29:52;44.37;;;33.77;;
15665;SDS011;20725;51.196;3.510;2023-02-15T12:32:23;40.03;;;34.63;;
15665;SDS011;20725;51.196;3.510;2023-02-15T12:34:54;41.30;;;34.60;;
15665;SDS011;20725;51.196;3.510;2023-02-15T12:37:27;45.50;;;36.00;;
15665;SDS011;20725;51.196;3.510;2023-02-15T12:40:02;45.53;;;36.63;;
15665;SDS011;20725;51.196;3.510;2023-02-15T12:42:45;42.00;;;33.57;;
15665;SDS011;20725;51.196;3.510;2023-02-15T12:45:25;40.03;;;35.50;;
15665;SDS011;20725;51.196;3.510;2023-02-15T12:48:12;39.87;;;33.97;;
15665;SDS011;20725;51.196;3.510;2023-02-15T12:50:42;38.73;;;32.90;;
15665;SDS011;20725;51.196;3.510;2023-02-15T12:53:13;38.03;;;33.87;;
15665;SDS011;20725;51.196;3.510;2023-02-15T12:55:52;42.03;;;33.20;;
15665;SDS011;20725;51.196;3.510;2023-02-15T12:58:21;36.17;;;32.43;;
15665;SDS011;20725;51.196;3.510;2023-02-15T13:03:50;33.88;;;30.30;;
15665;SDS011;20725;51.196;3.510;2023-02-15T13:06:24;35.13;;;30.48;;
15665;SDS011;20725;51.196;3.510;2023-02-15T13:08:53;34.78;;;31.05;;
15665;SDS011;20725;51.196;3.510;2023-02-15T13:11:25;37.25;;;31.05;;
15665;SDS011;20725;51.196;3.510;2023-02-15T13:14:00;34.30;;;30.67;;
15665;SDS011;20725;51.196;3.510;2023-02-15T13:16:29;36.38;;;29.88;;
15665;SDS011;20725;51.196;3.510;2023-02-15T13:18:59;39.17;;;31.98;;
15665;SDS011;20725;51.196;3.510;2023-02-15T13:21:33;35.47;;;30.27;;
15665;SDS011;20725;51.196;3.510;2023-02-15T13:24:06;33.80;;;29.13;;
15665;SDS011;20725;51.196;3.510;2023-02-15T13:26:45;33.42;;;30.00;;
15665;SDS011;20725;51.196;3.510;2023-02-15T13:29:16;38.58;;;30.17;;
15665;SDS011;20725;51.196;3.510;2023-02-15T13:31:49;31.70;;;28.35;;
15665;SDS011;20725;51.196;3.510;2023-02-15T13:34:19;34.55;;;30.75;;
15665;SDS011;20725;51.196;3.510;2023-02-15T13:36:54;36.08;;;30.90;;
15665;SDS011;20725;51.196;3.510;2023-02-15T13:39:27;32.50;;;29.00;;
15665;SDS011;20725;51.196;3.510;2023-02-15T13:42:05;35.60;;;31.20;;
15665;SDS011;20725;51.196;3.510;2023-02-15T13:44:55;38.97;;;29.30;;
15665;SDS011;20725;51.196;3.510;2023-02-15T13:47:37;33.20;;;29.60;;
15665;SDS011;20725;51.196;3.510;2023-02-15T13:50:20;37.40;;;29.90;;
15665;SDS011;20725;51.196;3.510;2023-02-15T13:52:57;33.67;;;29.87;;
15665;SDS011;20725;51.196;3.510;2023-02-15T13:55:37;37.23;;;30.53;;
15665;SDS011;20725;51.196;3.510;2023-02-15T14:01:26;36.77;;;31.07;;
15665;SDS011;20725;51.196;3.510;2023-02-15T14:04:10;33.67;;;29.37;;
15665;SDS011;20725;51.196;3.510;2023-02-15T14:09:56;34.37;;;29.07;;
15665;SDS011;20725;51.196;3.510;2023-02-15T14:12:41;36.43;;;30.27;;
15665;SDS011;20725;51.196;3.510;2023-02-15T14:15:27;34.37;;;29.50;;
15665;SDS011;20725;51.196;3.510;2023-02-15T14:18:09;35.60;;;28.97;;
15665;SDS011;20725;51.196;3.510;2023-02-15T14:20:47;33.37;;;28.30;;
15665;SDS011;20725;51.196;3.510;2023-02-15T14:23:29;35.90;;;27.63;;
15665;SDS011;20725;51.196;3.510;2023-02-15T14:26:09;35.40;;;29.33;;
15665;SDS011;20725;51.196;3.510;2023-02-15T14:28:44;35.67;;;30.17;;
15665;SDS011;20725;51.196;3.510;2023-02-15T14:31:23;36.53;;;29.40;;
15665;SDS011;20725;51.196;3.510;2023-02-15T14:33:57;37.30;;;29.50;;
15665;SDS011;20725;51.196;3.510;2023-02-15T14:36:24;39.47;;;30.03;;
15665;SDS011;20725;51.196;3.510;2023-02-15T14:38:57;35.13;;;30.03;;
15665;SDS011;20725;51.196;3.510;2023-02-15T14:41:57;38.00;;;28.73;;
15665;SDS011;20725;51.196;3.510;2023-02-15T14:44:31;37.70;;;29.87;;
15665;SDS011;20725;51.196;3.510;2023-02-15T14:47:09;36.73;;;29.83;;
15665;SDS011;20725;51.196;3.510;2023-02-15T14:49:44;35.03;;;28.77;;
15665;SDS011;20725;51.196;3.510;2023-02-15T14:52:15;38.97;;;28.27;;
15665;SDS011;20725;51.196;3.510;2023-02-15T14:54:55;36.60;;;27.97;;
15665;SDS011;20725;51.196;3.510;2023-02-15T14:57:25;36.83;;;28.40;;
15665;SDS011;20725;51.196;3.510;2023-02-15T14:59:58;36.73;;;29.17;;
15665;SDS011;20725;51.196;3.510;2023-02-15T15:02:44;37.77;;;28.40;;
15665;SDS011;20725;51.196;3.510;2023-02-15T15:05:16;36.60;;;27.27;;
15665;SDS011;20725;51.196;3.510;2023-02-15T15:07:48;38.10;;;27.77;;
15665;SDS011;20725;51.196;3.510;2023-02-15T15:10:36;39.13;;;30.90;;
15665;SDS011;20725;51.196;3.510;2023-02-15T15:19:10;40.53;;;31.83;;
15665;SDS011;20725;51.196;3.510;2023-02-15T15:22:03;48.70;;;33.43;;
15665;SDS011;20725;51.196;3.510;2023-02-15T15:24:50;50.97;;;34.00;;
15665;SDS011;20725;51.196;3.510;2023-02-15T15:33:39;49.27;;;34.83;;